createdAt,value
2019-03-06T00:00:48.361Z,98725.77
2019-03-06T00:10:54.749Z,98744.77
2019-03-06T00:20:59.650Z,98752.05
2019-03-06T00:31:05.278Z,98771.44
2019-03-06T00:41:11.645Z,98766.36
2019-03-06T00:51:16.475Z,98784.06
2019-03-06T01:01:21.329Z,98786.94
2019-03-06T01:11:26.140Z,98813.66
2019-03-06T01:21:30.964Z,98815.04
2019-03-06T01:31:35.789Z,98819.69
2019-03-06T01:41:42.149Z,98838.30
2019-03-06T01:51:46.954Z,98847.32
2019-03-06T02:01:51.809Z,98851.37
2019-03-06T02:11:57.615Z,98876.75
2019-03-06T02:22:02.425Z,98892.95
2019-03-06T02:32:07.360Z,98895.56
2019-03-06T02:42:12.161Z,98916.30
2019-03-06T02:52:16.981Z,98923.31
2019-03-06T03:02:23.342Z,98932.94
2019-03-06T03:12:28.168Z,98947.23
2019-03-06T03:22:32.976Z,98943.02
2019-03-06T03:32:37.809Z,98972.83
2019-03-06T03:42:42.651Z,98996.14
2019-03-06T03:52:47.481Z,98997.04
2019-03-06T04:02:52.285Z,99011.30
2019-03-06T04:12:57.121Z,99035.91
2019-03-06T04:23:01.922Z,99052.32
2019-03-06T04:33:06.736Z,99059.64
2019-03-06T04:43:11.564Z,99076.47
2019-03-06T04:53:16.410Z,99082.03
2019-03-06T05:03:22.215Z,99116.92
2019-03-06T05:13:27.136Z,99122.55
2019-03-06T05:23:31.958Z,99128.64
2019-03-06T05:33:36.761Z,99152.34
2019-03-06T05:43:41.559Z,99152.34
2019-03-06T05:53:46.390Z,99174.82
2019-03-06T06:03:51.209Z,99178.84
2019-03-06T06:13:56.043Z,99195.72
2019-03-06T06:24:02.426Z,99214.80
2019-03-06T06:34:08.236Z,99225.16
2019-03-06T06:44:13.028Z,99240.92
2019-03-06T06:54:21.024Z,99250.46
2019-03-06T07:05:06.449Z,99249.54
2019-03-06T07:15:30.910Z,99246.51
2019-03-06T07:25:37.291Z,99251.42
2019-03-06T07:36:06.647Z,99271.31
2019-03-06T07:46:18.745Z,99274.70
2019-03-06T07:56:28.092Z,99278.81
2019-03-06T08:06:32.904Z,99301.31
2019-03-06T08:16:39.288Z,99310.36
2019-03-06T08:26:44.098Z,99318.95
2019-03-06T08:36:48.921Z,99334.20
2019-03-06T08:46:58.260Z,98994.32
2019-03-06T08:57:22.724Z,99316.85
2019-03-06T09:07:45.051Z,99336.48
2019-03-06T09:17:51.434Z,99329.27
2019-03-06T09:28:00.491Z,99332.39
2019-03-06T09:38:21.907Z,99326.55
2019-03-06T09:48:33.264Z,99341.09
2019-03-06T09:58:48.285Z,99346.08
2019-03-06T10:09:09.975Z,99346.27
2019-03-06T10:19:17.252Z,99339.39
2019-03-06T10:29:22.174Z,99352.86
2019-03-06T10:39:27.092Z,99349.50
2019-03-06T10:49:31.904Z,99354.13
2019-03-06T10:59:36.805Z,99362.43
2019-03-06T11:09:41.733Z,99353.17
2019-03-06T11:19:46.625Z,99345.37
2019-03-06T11:29:51.417Z,99362.04
2019-03-06T11:39:56.250Z,99346.25
2019-03-06T11:50:01.063Z,99331.63
2019-03-06T12:00:13.054Z,99317.87
2019-03-06T12:10:19.411Z,99315.05
2019-03-06T12:20:24.215Z,99312.80
2019-03-06T12:30:29.045Z,99294.92
2019-03-06T12:40:34.668Z,99281.71
2019-03-06T12:50:40.580Z,99270.88
2019-03-06T13:00:45.394Z,99265.12
2019-03-06T13:10:50.229Z,99255.02
2019-03-06T13:20:55.066Z,99249.62
2019-03-06T13:30:59.874Z,99233.20
2019-03-06T13:41:05.285Z,99231.03
2019-03-06T13:51:10.233Z,99225.12
2019-03-06T14:01:15.570Z,99212.76
2019-03-06T14:11:20.610Z,99209.35
2019-03-06T14:21:25.540Z,99201.19
2019-03-06T14:31:30.742Z,99194.97
2019-03-06T14:41:35.573Z,99194.94
2019-03-06T14:51:40.411Z,99184.98
2019-03-06T15:01:45.432Z,99167.66
2019-03-06T15:11:50.259Z,99151.76
2019-03-06T15:21:55.205Z,99139.19
2019-03-06T15:32:00.946Z,99116.63
2019-03-06T15:42:07.171Z,99106.59
2019-03-06T15:52:12.568Z,99096.77
2019-03-06T16:02:17.621Z,99088.19
2019-03-06T16:12:22.999Z,99087.23
2019-03-06T16:22:28.218Z,99066.80
2019-03-06T16:32:33.186Z,99056.02
2019-03-06T16:42:38.160Z,99058.66
2019-03-06T16:52:43.603Z,99041.33
2019-03-06T17:02:48.756Z,99021.99
2019-03-06T17:12:54.258Z,99029.95
2019-03-06T17:22:59.888Z,99035.77
2019-03-06T17:33:12.346Z,99046.30
2019-03-06T17:43:17.525Z,99022.47
2019-03-06T17:53:22.889Z,99017.90
2019-03-06T18:03:35.145Z,99016.81
2019-03-06T18:13:40.271Z,99016.70
2019-03-06T18:23:45.549Z,98998.73
2019-03-06T18:33:50.595Z,99004.22
2019-03-06T18:43:55.660Z,98991.39
2019-03-06T18:54:02.047Z,98974.77
2019-03-06T19:04:07.132Z,98966.06
2019-03-06T19:14:12.252Z,98953.40
2019-03-06T19:24:18.006Z,98930.13
2019-03-06T19:34:23.231Z,98914.51
2019-03-06T19:44:28.327Z,98904.56
2019-03-06T19:54:33.408Z,98901.55
2019-03-06T20:04:40.108Z,98891.16
2019-03-06T20:14:45.430Z,98886.95
2019-03-06T20:24:50.805Z,98867.14
2019-03-06T20:34:56.988Z,98869.02
2019-03-06T20:45:02.030Z,98852.81
2019-03-06T20:55:08.509Z,98859.55
2019-03-06T21:05:13.718Z,98838.97
2019-03-06T21:15:19.940Z,98823.05
2019-03-06T21:25:25.194Z,98802.48
2019-03-06T21:35:30.420Z,98792.93
2019-03-06T21:45:35.454Z,98779.22
2019-03-06T21:55:40.579Z,98759.06
2019-03-06T22:05:45.437Z,98749.44
2019-03-06T22:15:50.288Z,98740.92
2019-03-06T22:25:55.151Z,98749.42
2019-03-06T22:36:00.023Z,98733.83
2019-03-06T22:46:05.194Z,98704.89
2019-03-06T22:56:10.087Z,98688.02
2019-03-06T23:06:14.939Z,98675.66
2019-03-06T23:16:19.811Z,98646.42
2019-03-06T23:26:24.672Z,98633.39
2019-03-06T23:36:29.614Z,98621.45
2019-03-06T23:46:34.525Z,98601.01
2019-03-06T23:56:39.462Z,98587.00
